Time;durP1;ratioP1;P1;durP2;ratioP2;P2;SDS_P1;SDS_P2;PMS_P1;PMS_P2;Temp;Humidity;BMP_temperature;BMP_pressure;BME280_temperature;BME280_humidity;BME280_pressure;Samples;Min_cycle;Max_cycle;Signal;HPM_P1;HPM_P2
2022/08/24 00:00:36;;;;;;;7.15;5.90;;;18.30;99.90;;;;;;5120485;27;20050;-69
2022/08/24 00:03:04;;;;;;;6.80;5.38;;;18.30;99.90;;;;;;5107992;28;20497;-69
2022/08/24 00:05:31;;;;;;;6.43;5.72;;;18.30;99.90;;;;;;5107929;28;20048;-69
2022/08/24 00:07:59;;;;;;;7.88;5.88;;;18.30;99.90;;;;;;5110565;27;20122;-69
2022/08/24 00:10:26;;;;;;;6.18;5.47;;;18.30;99.90;;;;;;5127681;28;20056;-70
2022/08/24 00:12:53;;;;;;;7.38;5.38;;;18.30;99.90;;;;;;5111302;27;20505;-70
2022/08/24 00:15:21;;;;;;;7.30;5.75;;;18.30;99.90;;;;;;5106547;28;20512;-70
2022/08/24 00:17:48;;;;;;;6.80;6.05;;;18.20;99.90;;;;;;5121573;27;20054;-70
2022/08/24 00:20:15;;;;;;;7.75;5.80;;;18.20;99.90;;;;;;5121260;27;20101;-70
2022/08/24 00:22:43;;;;;;;7.22;5.72;;;18.20;99.90;;;;;;5121363;28;20509;-70
2022/08/24 00:25:11;;;;;;;6.50;5.40;;;18.10;99.90;;;;;;5103738;28;20108;-70
2022/08/24 00:27:40;;;;;;;8.57;6.57;;;18.10;99.90;;;;;;5116414;27;20055;-70
2022/08/24 00:30:11;;;;;;;6.65;5.55;;;18.10;99.90;;;;;;5116483;28;20088;-70
2022/08/24 00:32:38;;;;;;;6.95;5.55;;;18.10;99.90;;;;;;5121374;27;20058;-70
2022/08/24 00:35:07;;;;;;;9.88;5.80;;;18.10;99.90;;;;;;5106239;28;20071;-70
2022/08/24 00:37:35;;;;;;;8.45;5.72;;;18.00;99.90;;;;;;5121884;27;20071;-70
2022/08/24 00:40:13;;;;;;;6.57;5.47;;;18.00;99.90;;;;;;5118283;27;20099;-70
2022/08/24 00:42:40;;;;;;;7.93;5.85;;;17.90;99.90;;;;;;5113820;27;20404;-70
2022/08/24 00:45:10;;;;;;;6.65;5.78;;;17.90;99.90;;;;;;5097818;28;20051;-70
2022/08/24 00:47:45;;;;;;;8.80;5.97;;;17.90;99.90;;;;;;5110753;28;20115;-70
2022/08/24 00:50:35;;;;;;;7.30;5.63;;;17.90;99.90;;;;;;5114438;28;20047;-70
2022/08/24 00:53:08;;;;;;;7.88;5.82;;;17.80;99.90;;;;;;5106062;28;20032;-70
2022/08/24 00:55:41;;;;;;;7.88;5.70;;;17.80;99.90;;;;;;5100768;28;20497;-70
2022/08/24 00:58:30;;;;;;;6.53;5.65;;;17.80;99.90;;;;;;5106165;28;20490;-70
2022/08/24 01:01:02;;;;;;;7.30;5.97;;;17.70;99.90;;;;;;5107239;28;20047;-70
2022/08/24 01:03:30;;;;;;;7.50;5.65;;;17.70;99.90;;;;;;5112999;28;20119;-70
2022/08/24 01:05:58;;;;;;;7.28;5.47;;;17.60;99.90;;;;;;5097264;28;20085;-69
2022/08/24 01:08:26;;;;;;;6.68;5.28;;;17.60;99.90;;;;;;5112073;27;20067;-70
2022/08/24 01:11:11;;;;;;;7.68;5.38;;;17.60;99.90;;;;;;5101530;28;20442;-70
2022/08/24 01:13:43;;;;;;;7.13;6.03;;;17.50;99.90;;;;;;5110125;28;20925;-70
2022/08/24 01:16:11;;;;;;;6.07;5.43;;;17.50;99.90;;;;;;5113470;27;20079;-70
2022/08/24 01:18:49;;;;;;;7.22;5.78;;;17.50;99.90;;;;;;5116562;27;20046;-70
2022/08/24 01:21:36;;;;;;;7.15;6.32;;;17.40;99.90;;;;;;5104392;27;20043;-69
2022/08/24 01:24:10;;;;;;;6.80;5.78;;;17.40;99.90;;;;;;5098257;28;20544;-69
2022/08/24 01:26:42;;;;;;;7.35;5.53;;;17.40;99.90;;;;;;5095567;27;20488;-70
2022/08/24 01:29:20;;;;;;;6.90;5.95;;;17.30;99.90;;;;;;5114434;27;20039;-70
2022/08/24 01:31:50;;;;;;;7.05;6.07;;;17.30;99.90;;;;;;5118886;27;20581;-70
2022/08/24 01:34:18;;;;;;;6.05;5.45;;;17.30;99.90;;;;;;5091706;28;20047;-70
2022/08/24 01:36:59;;;;;;;9.43;5.90;;;17.30;99.90;;;;;;5103194;27;20051;-69
2022/08/24 01:39:31;;;;;;;7.18;6.20;;;17.30;99.90;;;;;;5111103;27;20100;-69
2022/08/24 01:41:59;;;;;;;8.07;5.80;;;17.30;99.90;;;;;;5111444;27;20487;-69
2022/08/24 01:44:33;;;;;;;7.07;6.03;;;17.30;99.90;;;;;;5107989;28;20089;-70
2022/08/24 01:47:02;;;;;;;6.65;5.95;;;17.30;99.90;;;;;;5105980;28;20556;-69
2022/08/24 01:49:40;;;;;;;6.63;5.75;;;17.20;99.90;;;;;;5098479;27;20039;-69
2022/08/24 01:52:11;;;;;;;10.55;6.05;;;17.20;99.90;;;;;;5111541;27;20123;-69
2022/08/24 01:54:39;;;;;;;6.55;5.85;;;17.20;99.90;;;;;;5095709;27;20404;-69
2022/08/24 01:57:10;;;;;;;9.15;6.50;;;17.10;99.90;;;;;;5092442;28;20058;-69
2022/08/24 01:59:44;;;;;;;6.75;5.97;;;17.00;99.90;;;;;;5107636;27;20036;-70
2022/08/24 02:02:24;;;;;;;7.22;6.05;;;17.00;99.90;;;;;;5085824;28;20047;-70
2022/08/24 02:04:52;;;;;;;9.05;5.88;;;17.00;99.90;;;;;;5085672;28;20596;-69
2022/08/24 02:07:21;;;;;;;7.45;5.85;;;16.90;99.90;;;;;;5113687;27;20050;-69
2022/08/24 02:09:49;;;;;;;7.00;5.68;;;16.90;99.90;;;;;;5120108;27;20051;-69
2022/08/24 02:12:18;;;;;;;10.00;6.00;;;16.90;99.90;;;;;;5103468;27;20055;-70
2022/08/24 02:14:46;;;;;;;8.88;6.20;;;16.80;99.90;;;;;;5114328;27;20031;-69
2022/08/24 02:17:13;;;;;;;9.02;6.30;;;16.80;99.90;;;;;;5098536;28;20052;-69
2022/08/24 02:19:42;;;;;;;9.00;6.63;;;16.80;99.90;;;;;;5081664;27;20505;-69
2022/08/24 02:22:09;;;;;;;7.50;6.38;;;16.80;99.90;;;;;;5116008;27;20101;-69
2022/08/24 02:24:38;;;;;;;6.93;5.78;;;16.80;99.90;;;;;;5096065;27;20044;-68
2022/08/24 02:27:05;;;;;;;8.70;6.25;;;16.70;99.90;;;;;;5109625;27;20465;-68
2022/08/24 02:29:33;;;;;;;11.70;6.55;;;16.70;99.90;;;;;;5097425;28;20540;-68
2022/08/24 02:32:02;;;;;;;7.53;5.95;;;16.70;99.90;;;;;;5116858;27;20085;-69
2022/08/24 02:34:29;;;;;;;9.50;6.88;;;16.60;99.90;;;;;;5114303;27;20489;-68
2022/08/24 02:36:57;;;;;;;6.97;5.88;;;16.60;99.90;;;;;;5116991;27;20115;-68
2022/08/24 02:39:26;;;;;;;9.57;6.45;;;16.60;99.90;;;;;;5124863;27;20074;-70
2022/08/24 02:41:54;;;;;;;7.25;6.28;;;16.60;99.90;;;;;;5125474;27;20047;-68
2022/08/24 02:44:22;;;;;;;8.20;6.57;;;16.60;99.90;;;;;;5109451;27;20054;-69
2022/08/24 02:46:49;;;;;;;10.45;6.10;;;16.50;99.90;;;;;;5108977;27;20542;-67
2022/08/24 02:49:20;;;;;;;8.43;5.90;;;16.50;99.90;;;;;;5100838;27;20062;-68
2022/08/24 02:51:49;;;;;;;8.40;5.97;;;16.50;99.90;;;;;;5101972;27;20035;-68
2022/08/24 02:54:19;;;;;;;12.80;6.47;;;16.60;99.90;;;;;;5115524;27;20122;-68
2022/08/24 02:56:50;;;;;;;9.15;6.55;;;16.50;99.90;;;;;;5112846;27;20045;-68
2022/08/24 02:59:18;;;;;;;9.63;6.65;;;16.60;99.90;;;;;;5110517;27;20058;-68
2022/08/24 03:01:47;;;;;;;8.30;5.90;;;16.50;99.90;;;;;;5100702;27;20036;-68
2022/08/24 03:04:16;;;;;;;7.82;6.43;;;16.50;99.90;;;;;;5113138;27;20116;-68
2022/08/24 03:06:43;;;;;;;11.70;7.38;;;16.60;99.90;;;;;;5074262;27;20458;-68
2022/08/24 03:09:12;;;;;;;8.18;6.30;;;16.60;99.90;;;;;;5109305;27;20047;-68
2022/08/24 03:11:40;;;;;;;6.80;6.07;;;16.60;99.90;;;;;;5096403;27;20031;-68
2022/08/24 03:14:12;;;;;;;6.95;6.25;;;16.50;99.90;;;;;;5121457;27;20039;-68
2022/08/24 03:16:40;;;;;;;6.60;5.80;;;16.50;99.90;;;;;;5112218;27;20118;-69
2022/08/24 03:19:08;;;;;;;8.02;6.63;;;16.50;99.90;;;;;;5092431;28;20096;-69
2022/08/24 03:21:36;;;;;;;7.20;5.97;;;16.60;99.90;;;;;;5113249;27;20085;-69
2022/08/24 03:24:04;;;;;;;8.07;6.07;;;16.50;99.90;;;;;;5105911;27;20042;-68
2022/08/24 03:26:32;;;;;;;8.18;6.30;;;16.50;99.90;;;;;;5085556;27;20040;-68
2022/08/24 03:28:59;;;;;;;8.30;6.60;;;16.50;99.90;;;;;;5089262;28;20093;-68
2022/08/24 03:31:29;;;;;;;8.77;6.68;;;16.40;99.90;;;;;;5116543;27;20082;-68
2022/08/24 03:33:58;;;;;;;8.98;6.53;;;16.40;99.90;;;;;;5090097;28;20446;-67
2022/08/24 03:36:25;;;;;;;10.02;7.20;;;16.40;99.90;;;;;;5099304;27;20072;-68
2022/08/24 03:38:53;;;;;;;11.02;7.45;;;16.40;99.90;;;;;;5107986;27;20039;-68
2022/08/24 03:41:22;;;;;;;10.13;7.07;;;16.40;99.90;;;;;;5105620;27;20047;-68
2022/08/24 03:43:49;;;;;;;8.88;7.53;;;16.40;99.90;;;;;;5085274;27;20059;-68
2022/08/24 03:46:22;;;;;;;9.45;7.22;;;16.40;99.90;;;;;;5091512;28;20084;-68
2022/08/24 03:48:54;;;;;;;9.18;7.47;;;16.30;99.90;;;;;;5074000;27;20467;-68
2022/08/24 03:51:25;;;;;;;9.65;6.82;;;16.30;99.90;;;;;;5111501;27;20028;-68
2022/08/24 03:53:56;;;;;;;9.43;7.03;;;16.30;99.90;;;;;;5109620;27;20040;-69
2022/08/24 03:56:27;;;;;;;10.75;7.53;;;16.20;99.90;;;;;;5108463;27;20122;-68
2022/08/24 03:58:56;;;;;;;9.77;6.80;;;16.20;99.90;;;;;;5104589;27;20506;-68
2022/08/24 04:01:26;;;;;;;11.45;7.15;;;16.20;99.90;;;;;;5087683;28;20074;-68
2022/08/24 04:03:54;;;;;;;12.02;7.70;;;16.10;99.90;;;;;;5094641;28;20148;-68
2022/08/24 04:06:28;;;;;;;10.13;7.30;;;16.10;99.90;;;;;;5092917;27;20047;-68
2022/08/24 04:08:56;;;;;;;10.05;7.88;;;16.10;99.90;;;;;;5107168;28;20035;-68
2022/08/24 04:11:26;;;;;;;10.00;7.55;;;16.10;99.90;;;;;;5094746;28;20417;-68
2022/08/24 04:13:55;;;;;;;11.00;7.20;;;16.10;99.90;;;;;;5090868;28;20040;-67
2022/08/24 04:16:24;;;;;;;10.73;7.72;;;16.00;99.90;;;;;;5112645;28;20101;-68
2022/08/24 04:19:12;;;;;;;10.95;7.70;;;16.00;99.90;;;;;;5099412;28;20477;-68
2022/08/24 04:21:40;;;;;;;11.57;7.88;;;16.00;99.90;;;;;;5117060;28;20059;-68
2022/08/24 04:24:08;;;;;;;7.72;6.90;;;16.00;99.90;;;;;;5104701;28;20528;-68
2022/08/24 04:26:37;;;;;;;9.45;7.32;;;16.00;99.90;;;;;;5099016;28;20059;-68
2022/08/24 04:29:18;;;;;;;9.18;6.90;;;16.00;99.90;;;;;;5079235;28;20084;-68
2022/08/24 04:31:50;;;;;;;7.93;6.80;;;16.10;99.90;;;;;;5123010;28;20628;-68
2022/08/24 04:34:17;;;;;;;9.63;7.03;;;16.10;99.90;;;;;;5102956;28;20103;-68
2022/08/24 04:36:45;;;;;;;10.20;7.03;;;16.20;99.90;;;;;;5095197;28;20113;-68
2022/08/24 04:39:14;;;;;;;11.15;7.95;;;16.30;99.90;;;;;;5116161;28;20051;-68
2022/08/24 04:41:47;;;;;;;10.20;7.32;;;16.20;99.90;;;;;;5111716;28;20112;-68
2022/08/24 04:44:18;;;;;;;8.80;7.20;;;16.20;99.90;;;;;;5100974;28;20498;-68
2022/08/24 04:46:46;;;;;;;9.82;7.60;;;16.20;99.90;;;;;;5088529;28;20477;-68
2022/08/24 04:49:13;;;;;;;8.70;7.00;;;16.20;99.90;;;;;;5100400;27;20073;-68
2022/08/24 04:51:41;;;;;;;9.65;7.80;;;16.20;99.90;;;;;;5100236;28;20045;-68
2022/08/24 04:54:09;;;;;;;11.02;7.88;;;16.30;99.90;;;;;;5112341;27;20409;-68
2022/08/24 04:56:37;;;;;;;9.88;6.93;;;16.30;99.90;;;;;;5123019;27;20894;-72
2022/08/24 04:59:05;;;;;;;10.52;7.15;;;16.30;99.90;;;;;;5101216;27;20040;-69
2022/08/24 05:01:33;;;;;;;8.98;7.47;;;16.40;99.90;;;;;;5107829;27;20424;-68
2022/08/24 05:04:04;;;;;;;14.48;7.50;;;16.50;99.90;;;;;;5108387;27;20081;-69
2022/08/24 05:06:31;;;;;;;9.15;7.57;;;16.50;99.90;;;;;;5115477;27;20480;-69
2022/08/24 05:09:00;;;;;;;10.13;7.65;;;16.50;99.90;;;;;;5109380;27;20047;-68
2022/08/24 05:11:28;;;;;;;7.95;7.10;;;16.60;99.90;;;;;;5094622;27;20527;-70
2022/08/24 05:13:57;;;;;;;11.20;7.82;;;16.70;99.90;;;;;;5090351;28;20100;-69
2022/08/24 05:16:26;;;;;;;9.05;7.43;;;16.70;99.90;;;;;;5092999;27;20035;-68
2022/08/24 05:18:56;;;;;;;10.00;7.22;;;16.70;99.90;;;;;;5120874;27;20039;-69
2022/08/24 05:21:27;;;;;;;9.77;8.23;;;16.80;99.90;;;;;;5111539;27;20044;-69
2022/08/24 05:23:56;;;;;;;8.80;7.57;;;16.80;99.90;;;;;;5120476;27;20047;-69
2022/08/24 05:26:27;;;;;;;9.95;7.60;;;16.90;99.90;;;;;;5111142;27;20051;-68
2022/08/24 05:28:57;;;;;;;13.70;8.50;;;17.00;99.90;;;;;;5121491;27;20046;-69
2022/08/24 05:31:29;;;;;;;8.68;7.38;;;17.00;99.90;;;;;;5124862;27;20047;-69
2022/08/24 05:34:00;;;;;;;10.32;8.32;;;17.10;99.90;;;;;;5111250;27;20054;-69
2022/08/24 05:36:31;;;;;;;10.40;7.30;;;17.20;99.90;;;;;;5109259;28;20054;-69
2022/08/24 05:39:01;;;;;;;10.48;8.15;;;17.20;99.90;;;;;;5101552;28;20093;-69
2022/08/24 05:41:30;;;;;;;9.90;7.53;;;17.30;99.90;;;;;;5096525;28;20035;-68
2022/08/24 05:44:06;;;;;;;9.55;7.30;;;17.40;99.90;;;;;;5115974;27;20110;-69
2022/08/24 05:46:34;;;;;;;11.73;8.25;;;17.50;99.90;;;;;;5097297;27;20067;-68
2022/08/24 05:49:01;;;;;;;11.95;7.80;;;17.50;99.90;;;;;;5100080;27;20047;-68
2022/08/24 05:51:31;;;;;;;9.65;7.70;;;17.60;99.90;;;;;;5110118;27;20506;-70
2022/08/24 05:54:03;;;;;;;12.80;7.80;;;17.70;99.90;;;;;;5085286;27;20529;-69
2022/08/24 05:56:50;;;;;;;12.13;8.23;;;17.70;99.90;;;;;;5078277;28;20485;-69
2022/08/24 05:59:18;;;;;;;10.15;7.70;;;17.90;99.90;;;;;;5094492;27;20123;-69
2022/08/24 06:01:47;;;;;;;9.43;7.80;;;17.90;99.90;;;;;;5091329;27;20052;-69
2022/08/24 06:04:14;;;;;;;16.05;8.77;;;18.00;99.90;;;;;;5092836;27;20044;-69
2022/08/24 06:06:42;;;;;;;12.82;7.43;;;18.00;99.90;;;;;;5086672;27;20054;-69
2022/08/24 06:09:11;;;;;;;13.18;8.70;;;18.10;99.90;;;;;;5114235;27;20060;-69
2022/08/24 06:11:40;;;;;;;13.18;9.88;;;18.20;99.90;;;;;;5076822;28;20126;-69
2022/08/24 06:14:12;;;;;;;9.27;7.70;;;18.30;99.90;;;;;;5105453;27;20074;-69
2022/08/24 06:16:52;;;;;;;9.63;7.38;;;18.40;99.90;;;;;;5078812;28;20088;-69
2022/08/24 06:19:21;;;;;;;10.40;7.70;;;18.50;99.90;;;;;;5113197;27;20100;-69
2022/08/24 06:21:51;;;;;;;13.35;8.98;;;18.50;99.90;;;;;;5117462;27;20472;-68
2022/08/24 06:27:19;;;;;;;10.00;7.50;;;18.60;99.90;;;;;;5107633;27;20115;-65
2022/08/24 06:27:19;;;;;;;8.27;7.38;;;18.50;99.90;;;;;;5097474;27;20119;-68
2022/08/24 06:29:59;;;;;;;9.93;8.35;;;18.70;99.90;;;;;;5095567;27;20044;-64
2022/08/24 06:32:46;;;;;;;13.32;8.10;;;18.90;99.90;;;;;;5060839;27;20044;-63
2022/08/24 06:35:32;;;;;;;9.88;8.02;;;19.10;99.90;;;;;;5092897;27;20529;-63
2022/08/24 06:38:00;;;;;;;11.07;8.27;;;19.10;99.90;;;;;;5093711;27;20048;-64
2022/08/24 06:40:28;;;;;;;11.77;8.18;;;19.20;99.90;;;;;;5118038;27;20576;-65
2022/08/24 06:43:01;;;;;;;13.52;9.57;;;19.40;99.90;;;;;;5117325;27;20040;-64
2022/08/24 06:45:58;;;;;;;9.57;7.97;;;19.50;99.90;;;;;;5081988;27;20397;-63
2022/08/24 06:48:33;;;;;;;11.60;8.30;;;19.70;99.90;;;;;;5088316;28;20677;-64
2022/08/24 06:51:00;;;;;;;9.98;8.18;;;19.70;99.90;;;;;;5110265;27;20096;-64
2022/08/24 06:53:28;;;;;;;11.35;8.25;;;19.80;99.90;;;;;;5102658;27;20116;-65
2022/08/24 06:55:58;;;;;;;12.45;8.02;;;19.90;99.90;;;;;;5093195;27;20112;-65
2022/08/24 06:58:31;;;;;;;9.70;8.38;;;20.00;99.90;;;;;;5088710;28;20062;-65
2022/08/24 07:01:16;;;;;;;9.52;7.95;;;20.00;99.90;;;;;;5119167;27;20093;-66
2022/08/24 07:03:46;;;;;;;12.82;8.55;;;20.10;99.90;;;;;;5096373;28;20366;-64
2022/08/24 07:06:36;;;;;;;9.40;8.38;;;20.20;99.90;;;;;;5109154;27;20294;-66
2022/08/24 07:09:04;;;;;;;9.50;8.27;;;20.30;99.90;;;;;;5097694;28;20486;-63
2022/08/24 07:11:33;;;;;;;11.73;7.50;;;20.30;99.90;;;;;;5111010;27;20422;-65
2022/08/24 07:14:01;;;;;;;9.57;7.35;;;20.40;99.90;;;;;;5109770;27;20412;-64
2022/08/24 07:16:29;;;;;;;10.02;7.82;;;20.50;99.90;;;;;;5118650;27;20065;-65
2022/08/24 07:19:02;;;;;;;10.32;8.00;;;20.60;99.90;;;;;;5094821;27;20032;-65
2022/08/24 07:21:31;;;;;;;10.95;7.63;;;20.60;99.90;;;;;;5112885;27;20540;-64
2022/08/24 07:24:01;;;;;;;9.38;7.63;;;20.70;99.90;;;;;;5116063;27;20055;-67
2022/08/24 07:26:32;;;;;;;9.15;7.55;;;20.80;99.90;;;;;;5118871;27;20517;-64
2022/08/24 07:29:09;;;;;;;8.68;7.78;;;20.90;99.90;;;;;;5098386;27;20462;-64
2022/08/24 07:31:56;;;;;;;10.93;7.65;;;21.10;99.90;;;;;;5105050;27;20048;-63
2022/08/24 07:34:33;;;;;;;9.40;7.72;;;21.10;99.90;;;;;;5106509;27;20139;-65
2022/08/24 07:37:00;;;;;;;8.93;7.63;;;21.20;99.90;;;;;;5106187;27;20044;-65
2022/08/24 07:39:29;;;;;;;10.85;8.00;;;21.30;99.90;;;;;;5108997;27;20568;-64
2022/08/24 07:41:56;;;;;;;7.95;7.15;;;21.40;99.90;;;;;;5098381;28;20048;-64
2022/08/24 07:44:44;;;;;;;9.93;7.68;;;21.50;99.90;;;;;;5107203;27;20415;-64
2022/08/24 07:47:12;;;;;;;8.75;7.03;;;21.60;99.90;;;;;;5087432;28;20058;-68
2022/08/24 07:50:02;;;;;;;9.20;7.18;;;21.60;99.90;;;;;;5105793;27;20496;-64
2022/08/24 07:52:30;;;;;;;8.32;7.47;;;21.70;99.90;;;;;;5095785;27;20063;-64
2022/08/24 07:54:58;;;;;;;7.85;7.00;;;21.80;99.90;;;;;;5113160;27;20035;-64
2022/08/24 07:57:26;;;;;;;12.88;7.65;;;21.90;99.90;;;;;;5115440;27;20070;-65
2022/08/24 07:59:54;;;;;;;8.32;7.53;;;22.10;99.90;;;;;;5115171;27;20441;-65
2022/08/24 08:02:21;;;;;;;8.20;7.40;;;22.10;99.90;;;;;;5091882;28;20136;-67
2022/08/24 08:04:54;;;;;;;8.18;7.32;;;22.30;99.90;;;;;;5087187;28;20562;-64
2022/08/24 08:07:22;;;;;;;8.68;7.78;;;22.40;99.90;;;;;;5107823;27;20039;-67
2022/08/24 08:09:50;;;;;;;7.68;6.88;;;22.60;99.90;;;;;;5085832;28;20429;-64
2022/08/24 08:12:18;;;;;;;8.63;7.72;;;22.70;99.90;;;;;;5090810;28;20043;-64
2022/08/24 08:14:54;;;;;;;10.45;7.75;;;22.70;99.90;;;;;;5096434;28;20120;-65
2022/08/24 08:17:21;;;;;;;8.65;7.50;;;22.70;99.90;;;;;;5104391;28;20561;-63
2022/08/24 08:19:49;;;;;;;8.00;7.25;;;22.70;99.90;;;;;;5099162;28;20194;-65
2022/08/24 08:25:37;;;;;;;8.55;7.28;;;22.90;99.90;;;;;;5101303;27;20081;-65
2022/08/24 08:28:10;;;;;;;7.18;6.55;;;23.10;99.90;;;;;;5090494;27;20514;-65
2022/08/24 08:30:53;;;;;;;9.40;7.38;;;23.20;99.90;;;;;;5113009;27;20043;-66
2022/08/24 08:33:23;;;;;;;7.55;6.85;;;23.40;99.90;;;;;;5094451;28;20110;-64
2022/08/24 08:35:57;;;;;;;7.80;7.18;;;23.50;99.90;;;;;;5122067;27;20063;-64
2022/08/24 08:38:25;;;;;;;8.82;7.50;;;23.60;99.90;;;;;;5106770;27;20071;-65
2022/08/24 08:41:37;;;;;;;8.25;7.35;;;23.50;99.90;;;;;;5116221;27;20453;-65
2022/08/24 08:44:33;;;;;;;9.32;8.07;;;23.50;99.90;;;;;;5095083;27;20112;-64
2022/08/24 08:47:22;;;;;;;8.65;7.60;;;23.60;99.90;;;;;;5109802;27;20063;-65
2022/08/24 08:50:07;;;;;;;8.32;7.63;;;23.70;99.90;;;;;;5110610;27;20397;-65
2022/08/24 08:53:05;;;;;;;9.20;7.68;;;23.90;99.90;;;;;;5097874;27;20054;-67
2022/08/24 08:56:14;;;;;;;7.88;7.18;;;24.10;99.90;;;;;;5105831;27;20059;-64
2022/08/24 08:58:56;;;;;;;8.55;7.38;;;24.20;99.90;;;;;;5090256;27;20492;-65
2022/08/24 09:01:51;;;;;;;9.60;7.93;;;24.30;99.90;;;;;;5105812;27;20413;-65
2022/08/24 09:05:09;;;;;;;7.93;7.15;;;24.40;99.90;;;;;;5094673;28;20067;-65
2022/08/24 09:07:37;;;;;;;8.10;7.30;;;24.50;99.90;;;;;;5116817;27;20462;-65
2022/08/24 09:10:26;;;;;;;7.65;6.95;;;24.70;99.90;;;;;;5122555;27;20047;-66
2022/08/24 09:12:59;;;;;;;8.52;7.82;;;24.70;99.90;;;;;;5119335;27;20479;-65
2022/08/24 09:16:24;;;;;;;7.55;6.85;;;24.70;99.90;;;;;;5121629;27;20051;-66
2022/08/24 09:19:34;;;;;;;7.10;6.40;;;24.90;99.90;;;;;;5043739;28;20050;-65
2022/08/24 09:22:18;;;;;;;7.25;6.43;;;25.00;99.90;;;;;;5026223;28;20053;-66
2022/08/24 09:24:51;;;;;;;7.47;6.78;;;25.20;99.90;;;;;;5027942;28;20057;-64
2022/08/24 09:27:39;;;;;;;7.40;6.68;;;25.40;99.90;;;;;;5034162;28;20501;-65
2022/08/24 09:30:21;;;;;;;7.10;6.50;;;25.20;99.90;;;;;;4998660;28;20053;-66
2022/08/24 09:33:05;;;;;;;6.60;6.05;;;25.40;99.90;;;;;;5047214;28;20059;-64
2022/08/24 09:35:52;;;;;;;6.95;6.35;;;25.50;99.90;;;;;;5046206;28;20519;-64
2022/08/24 09:38:47;;;;;;;6.97;6.40;;;25.70;99.90;;;;;;5046011;28;20114;-64
2022/08/24 09:41:14;;;;;;;7.10;6.50;;;25.80;99.90;;;;;;5052466;28;20135;-64
2022/08/24 09:44:08;;;;;;;7.40;6.70;;;25.80;99.90;;;;;;5064064;28;20068;-66
2022/08/24 09:46:58;;;;;;;7.78;7.07;;;25.80;99.90;;;;;;5054200;28;20522;-66
2022/08/24 09:49:32;;;;;;;7.00;6.40;;;25.80;99.90;;;;;;5073702;27;20429;-64
2022/08/24 09:52:05;;;;;;;8.55;7.03;;;26.00;99.90;;;;;;5110613;27;20048;-64
2022/08/24 09:54:40;;;;;;;7.50;6.80;;;26.00;99.90;;;;;;5101486;27;20405;-64
2022/08/24 09:57:43;;;;;;;7.10;6.50;;;26.10;99.90;;;;;;5112790;27;20397;-64
2022/08/24 10:00:52;;;;;;;7.80;7.10;;;26.20;99.90;;;;;;5105668;27;20123;-64
2022/08/24 10:03:39;;;;;;;7.93;7.22;;;25.90;99.90;;;;;;5112688;27;20513;-64
2022/08/24 10:06:11;;;;;;;8.10;7.30;;;26.10;99.90;;;;;;5109342;27;21007;-64
2022/08/24 10:09:20;;;;;;;7.40;6.70;;;26.50;99.90;;;;;;5113658;27;20561;-67
2022/08/24 10:11:56;;;;;;;8.07;6.90;;;26.90;99.90;;;;;;5093796;27;20031;-64
2022/08/24 10:14:44;;;;;;;8.32;7.53;;;27.20;99.90;;;;;;5123459;27;20071;-64
2022/08/24 10:17:37;;;;;;;7.78;7.07;;;27.50;99.90;;;;;;5126628;27;20126;-65
2022/08/24 10:20:27;;;;;;;8.38;7.30;;;27.70;99.90;;;;;;5120846;27;20096;-65
2022/08/24 10:23:07;;;;;;;8.52;7.72;;;27.90;99.90;;;;;;5098446;27;20494;-66
2022/08/24 10:25:38;;;;;;;8.40;7.50;;;28.20;99.90;;;;;;5110996;27;20109;-65
2022/08/24 10:28:50;;;;;;;8.02;7.30;;;28.50;99.90;;;;;;5114285;27;20055;-65
2022/08/24 10:31:22;;;;;;;;;;;28.70;99.90;;;;;;5112626;27;20039;-65
2022/08/24 10:34:14;;;;;;;8.40;7.60;;;28.20;99.90;;;;;;5102250;28;19927;-65
2022/08/24 10:37:00;;;;;;;8.52;7.75;;;28.30;99.90;;;;;;5102890;27;20063;-65
2022/08/24 10:40:04;;;;;;;9.00;7.70;;;28.90;99.90;;;;;;5099392;27;20035;-65
2022/08/24 10:46:04;;;;;;;8.50;7.80;;;30.00;99.90;;;;;;5110236;27;20047;-65
2022/08/24 10:48:31;;;;;;;8.80;8.10;;;30.30;99.90;;;;;;5119245;27;20043;-66
2022/08/24 10:51:33;;;;;;;8.70;7.90;;;30.50;99.90;;;;;;5116728;27;20514;-65
2022/08/24 10:54:01;;;;;;;8.05;7.25;;;30.50;99.90;;;;;;5099758;27;20456;-67
2022/08/24 10:56:40;;;;;;;8.88;7.97;;;30.50;99.90;;;;;;5115750;27;20127;-65
2022/08/24 10:59:45;;;;;;;7.63;6.93;;;30.40;99.90;;;;;;5114644;27;20577;-65
2022/08/24 11:02:35;;;;;;;7.90;7.25;;;30.20;99.90;;;;;;5103740;27;20059;-65
2022/08/24 11:05:09;;;;;;;7.97;7.38;;;30.10;99.90;;;;;;5096886;28;20044;-64
2022/08/24 11:07:55;;;;;;;8.27;7.57;;;30.10;99.90;;;;;;5106533;27;20130;-66
2022/08/24 11:10:28;;;;;;;8.23;7.53;;;30.50;99.90;;;;;;5117983;27;20047;-65
2022/08/24 11:13:23;;;;;;;7.90;7.22;;;30.60;99.90;;;;;;5106877;27;20590;-65
2022/08/24 11:15:53;;;;;;;7.53;6.93;;;31.30;99.90;;;;;;5114308;27;20046;-66
2022/08/24 11:18:22;;;;;;;7.53;6.73;;;32.00;99.90;;;;;;5115156;27;20490;-64
2022/08/24 11:20:52;;;;;;;7.88;7.10;;;31.90;99.90;;;;;;5106404;27;20776;-64
2022/08/24 11:23:24;;;;;;;7.72;7.13;;;31.70;99.90;;;;;;5092378;27;20047;-64
2022/08/24 11:26:12;;;;;;;8.10;7.30;;;31.50;99.90;;;;;;5098684;27;20382;-65
2022/08/24 11:28:49;;;;;;;8.07;7.30;;;31.30;99.90;;;;;;5089330;27;20109;-65
2022/08/24 11:31:40;;;;;;;7.88;7.18;;;31.00;99.90;;;;;;5095897;27;20398;-64
2022/08/24 11:34:18;;;;;;;7.43;6.73;;;31.40;99.90;;;;;;5090687;27;20044;-65
2022/08/24 11:36:45;;;;;;;7.55;6.95;;;31.90;99.90;;;;;;5092264;27;20036;-64
2022/08/24 11:39:16;;;;;;;7.18;6.57;;;32.20;99.90;;;;;;5094087;27;20494;-64
2022/08/24 11:41:54;;;;;;;7.10;6.50;;;32.90;99.90;;;;;;5098068;28;20040;-65
2022/08/24 11:44:44;;;;;;;7.22;6.70;;;33.60;98.70;;;;;;5088301;28;20506;-65
2022/08/24 11:47:26;;;;;;;8.35;7.15;;;34.00;97.40;;;;;;5094068;27;20052;-64
2022/08/24 11:49:57;;;;;;;7.90;7.30;;;34.30;96.50;;;;;;5091657;27;20139;-65
2022/08/24 11:52:25;;;;;;;;;;;34.60;95.80;;;;;;5094564;27;20140;-64
2022/08/24 11:55:11;;;;;;;7.97;7.28;;;34.50;95.10;;;;;;5093606;27;19982;-68
2022/08/24 11:57:57;;;;;;;8.20;7.40;;;34.60;94.30;;;;;;5108673;27;20039;-65
2022/08/24 12:00:37;;;;;;;8.10;7.40;;;34.80;93.90;;;;;;5102464;27;20050;-66
2022/08/24 12:03:08;;;;;;;8.40;7.63;;;35.20;93.90;;;;;;5103133;28;20143;-66
2022/08/24 12:05:42;;;;;;;9.52;7.63;;;35.70;92.40;;;;;;5102900;28;20059;-66
2022/08/24 12:08:47;;;;;;;8.27;7.47;;;35.80;91.60;;;;;;5110218;27;20100;-65
2022/08/24 12:11:33;;;;;;;8.02;7.32;;;36.60;91.00;;;;;;5111787;28;20124;-66
2022/08/24 12:14:23;;;;;;;7.65;7.05;;;36.90;89.00;;;;;;5109621;28;20039;-64
2022/08/24 12:17:09;;;;;;;8.15;7.55;;;37.20;87.10;;;;;;5093825;28;20138;-64
2022/08/24 12:19:43;;;;;;;8.15;7.30;;;37.30;85.00;;;;;;5115476;28;20119;-65
2022/08/24 12:22:13;;;;;;;7.40;6.80;;;37.60;83.00;;;;;;5120213;28;20114;-65
2022/08/24 12:24:51;;;;;;;7.50;6.80;;;38.30;81.00;;;;;;5098972;27;20050;-65
2022/08/24 12:27:28;;;;;;;7.68;7.07;;;38.30;80.20;;;;;;5104141;28;20369;-65
2022/08/24 12:30:11;;;;;;;8.52;7.40;;;38.00;79.80;;;;;;5106728;27;20569;-66
2022/08/24 12:32:42;;;;;;;7.93;7.32;;;38.30;79.90;;;;;;5106433;28;20162;-67
2022/08/24 12:35:30;;;;;;;7.20;6.70;;;38.80;77.50;;;;;;5104597;28;20485;-67
2022/08/24 12:38:21;;;;;;;8.20;7.60;;;39.20;75.00;;;;;;5103767;28;20063;-66
2022/08/24 12:41:22;;;;;;;7.38;6.78;;;38.20;74.70;;;;;;5117428;27;20036;-66
2022/08/24 12:43:57;;;;;;;7.50;6.90;;;36.40;76.90;;;;;;5039156;28;20488;-66
2022/08/24 12:46:25;;;;;;;7.45;6.82;;;36.40;77.70;;;;;;5103041;28;20044;-66
2022/08/24 12:49:11;;;;;;;8.00;7.30;;;36.30;77.90;;;;;;5102224;28;20498;-66
2022/08/24 12:52:15;;;;;;;7.80;7.18;;;35.90;78.60;;;;;;5101762;28;20039;-68
2022/08/24 12:54:45;;;;;;;8.13;7.43;;;34.80;80.30;;;;;;5100060;28;20042;-67
2022/08/24 12:57:32;;;;;;;7.75;7.15;;;34.10;82.00;;;;;;5098331;28;20067;-67
2022/08/24 13:00:14;;;;;;;8.02;7.22;;;33.60;83.20;;;;;;5112796;28;20044;-66
2022/08/24 13:02:44;;;;;;;7.53;6.82;;;34.00;83.90;;;;;;5116154;28;20047;-68
2022/08/24 13:05:17;;;;;;;7.97;7.28;;;34.20;83.60;;;;;;5098608;28;20055;-66
2022/08/24 13:07:48;;;;;;;7.50;6.80;;;34.20;83.90;;;;;;5111223;28;20130;-66
2022/08/24 13:10:43;;;;;;;7.50;6.90;;;34.90;83.30;;;;;;5098478;27;20403;-66
2022/08/24 13:13:18;;;;;;;7.95;7.35;;;36.00;81.10;;;;;;5100229;27;20046;-65
2022/08/24 13:15:52;;;;;;;8.02;7.28;;;37.10;78.40;;;;;;5100995;28;20490;-67
2022/08/24 13:18:20;;;;;;;7.35;6.65;;;38.00;75.10;;;;;;5097686;27;20482;-67
2022/08/24 13:20:48;;;;;;;7.68;6.88;;;38.70;73.40;;;;;;5090620;27;20144;-67
2022/08/24 13:23:21;;;;;;;7.95;7.22;;;39.50;72.70;;;;;;5093092;27;20040;-66
2022/08/24 13:25:55;;;;;;;8.13;6.97;;;40.40;70.00;;;;;;5089783;28;20044;-67
2022/08/24 13:28:22;;;;;;;7.35;6.63;;;40.90;67.20;;;;;;5081204;27;20067;-66
2022/08/24 13:30:52;;;;;;;6.95;6.35;;;41.40;65.40;;;;;;5103229;27;20047;-67
2022/08/24 13:33:40;;;;;;;7.70;7.00;;;42.70;63.10;;;;;;5092943;27;20051;-66